This is the latest recevied weather packets stored in our database for station/object DL9LA-13. If no packets are shown the sender has not sent any weather packets the latest 10 day(s).
| Time | Temp. | Humidity | Pressure | Rain* | Wind** | Luminosity | Snow |
|---|---|---|---|---|---|---|---|
| 1777651962 | 21.11° C | 30% | 980 hPa | - | - | - | - |
| 1777650151 | 21.11° C | 29% | 980 hPa | - | - | - | - |
| 1777649548 | 21.11° C | 29% | 980 hPa | - | - | - | - |
| 1777647133 | 21.11° C | 28% | 980 hPa | - | - | - | - |
| 1777646530 | 21.67° C | 28% | 980 hPa | - | - | - | - |
| 1777645926 | 21.11° C | 28% | 981 hPa | - | - | - | - |
| 1777644115 | 21.11° C | 29% | 981 hPa | - | - | - | - |
| 1777642908 | 20.56° C | 29% | 981 hPa | - | - | - | - |
| 1777642304 | 20.56° C | 28% | 981 hPa | - | - | - | - |
| 1777641700 | 20° C | 29% | 981 hPa | - | - | - | - |
| 1777633853 | 18.89° C | 31% | 982 hPa | - | - | - | - |
| 1777632042 | 18.33° C | 30% | 982 hPa | - | - | - | - |
| 1777630835 | 17.78° C | 30% | 983 hPa | - | - | - | - |
| 1777626609 | 16.11° C | 33% | 983 hPa | - | - | - | - |
| 1777626006 | 15.56° C | 33% | 983 hPa | - | - | - | - |
| 1777625402 | 15° C | 33% | 983 hPa | - | - | - | - |
| 1777624799 | 15° C | 34% | 983 hPa | - | - | - | - |
| 1777623591 | 14.44° C | 36% | 983 hPa | - | - | - | - |
| 1777621177 | 12.78° C | 38% | 983 hPa | - | - | - | - |
| 1777619969 | 12.22° C | 38% | 983 hPa | - | - | - | - |
| 1777619366 | 12.22° C | 39% | 983 hPa | - | - | - | - |
| 1777617555 | 11.67° C | 38% | 983 hPa | - | - | - | - |
| 1777616951 | 11.67° C | 37% | 983 hPa | - | - | - | - |
| 1777615140 | 14.44° C | 31% | 983 hPa | - | - | - | - |
| 1777613933 | 26.67° C | 18% | 983 hPa | - | - | - | - |
* Rain since midnight (hover to see other rain measurements)
** Current wind speed in m/s (hover to see current wind gust speed)